Time;durP1;ratioP1;P1;durP2;ratioP2;P2;SDS_P1;SDS_P2;PMS_P1;PMS_P2;Temp;Humidity;BMP_temperature;BMP_pressure;BME280_temperature;BME280_humidity;BME280_pressure;Samples;Min_cycle;Max_cycle;Signal;HPM_P1;HPM_P2
2024/03/24 00:04:45;;;;;;;7.93;3.72;;;;;;;;;;10128772;28;20457;-74
2024/03/24 00:09:38;;;;;;;8.35;3.80;;;;;;;;;;10123726;28;20060;-74
2024/03/24 00:14:32;;;;;;;8.40;3.55;;;;;;;;;;10125721;28;20536;-75
2024/03/24 00:19:25;;;;;;;7.88;3.65;;;;;;;;;;10119581;28;20048;-73
2024/03/24 00:24:17;;;;;;;6.35;3.17;;;;;;;;;;10126874;28;20052;-74
2024/03/24 00:29:10;;;;;;;3.38;2.30;;;;;;;;;;10127577;28;20044;-74
2024/03/24 00:34:01;;;;;;;5.85;2.05;;;;;;;;;;10130828;28;20496;-74
2024/03/24 00:38:54;;;;;;;2.45;1.58;;;;;;;;;;10132825;28;20094;-73
2024/03/24 00:43:46;;;;;;;6.53;1.70;;;;;;;;;;10144011;28;20040;-73
2024/03/24 00:48:39;;;;;;;1.50;1.30;;;;;;;;;;10138981;28;20075;-73
2024/03/24 00:53:31;;;;;;;2.90;1.73;;;;;;;;;;10135021;28;20504;-73
2024/03/24 00:58:24;;;;;;;4.40;1.73;;;;;;;;;;10135295;28;20048;-73
2024/03/24 01:03:16;;;;;;;4.15;2.90;;;;;;;;;;10140624;28;20084;-73
2024/03/24 01:08:09;;;;;;;7.95;7.38;;;;;;;;;;10133617;28;20052;-73
2024/03/24 01:13:01;;;;;;;13.07;12.40;;;;;;;;;;10109130;28;20084;-74
2024/03/24 01:17:54;;;;;;;17.35;16.45;;;;;;;;;;10108082;28;20053;-73
2024/03/24 01:22:48;;;;;;;43.35;40.22;;;;;;;;;;10107929;28;20349;-74
2024/03/24 01:27:41;;;;;;;17.02;16.02;;;;;;;;;;10106968;28;20041;-73
2024/03/24 01:32:34;;;;;;;11.50;10.75;;;;;;;;;;10106552;28;20115;-73
2024/03/24 01:37:27;;;;;;;86.07;80.60;;;;;;;;;;10102963;28;20562;-72
2024/03/24 01:42:20;;;;;;;29.17;27.55;;;;;;;;;;10107089;28;20168;-74
2024/03/24 01:47:12;;;;;;;8.95;8.45;;;;;;;;;;10108858;28;20131;-73
2024/03/24 01:52:08;;;;;;;266.55;181.85;;;;;;;;;;10106478;28;20052;-74
2024/03/24 01:57:02;;;;;;;9.82;9.18;;;;;;;;;;10106983;28;20124;-72
2024/03/24 02:01:57;;;;;;;13.60;12.60;;;;;;;;;;10106405;28;20103;-73
2024/03/24 02:06:50;;;;;;;27.27;25.60;;;;;;;;;;10099620;28;20041;-74
2024/03/24 02:11:43;;;;;;;8.63;8.20;;;;;;;;;;10112838;28;20045;-76
2024/03/24 02:16:36;;;;;;;77.65;72.68;;;;;;;;;;10127232;28;20049;-72
2024/03/24 02:21:28;;;;;;;10.07;9.52;;;;;;;;;;10136562;28;20453;-72
2024/03/24 02:26:21;;;;;;;7.15;6.75;;;;;;;;;;10129561;28;20048;-73
2024/03/24 02:31:16;;;;;;;26.92;25.27;;;;;;;;;;10128426;28;20132;-72
2024/03/24 02:36:08;;;;;;;12.68;11.82;;;;;;;;;;10128583;28;20040;-72
2024/03/24 02:41:02;;;;;;;11.27;10.73;;;;;;;;;;10128251;28;20048;-74
2024/03/24 02:45:58;;;;;;;8.25;7.85;;;;;;;;;;10128516;28;20110;-75
2024/03/24 02:50:52;;;;;;;8.75;8.32;;;;;;;;;;10127228;28;20115;-74
2024/03/24 02:55:48;;;;;;;9.23;8.82;;;;;;;;;;10122870;28;20063;-74
2024/03/24 03:00:40;;;;;;;46.38;43.92;;;;;;;;;;10123037;28;20051;-75
2024/03/24 03:05:33;;;;;;;13.38;12.65;;;;;;;;;;10116971;28;20053;-74
2024/03/24 03:10:26;;;;;;;14.98;14.15;;;;;;;;;;10114266;28;20051;-74
2024/03/24 03:15:18;;;;;;;9.27;8.77;;;;;;;;;;10125302;28;20051;-75
2024/03/24 03:20:14;;;;;;;80.40;75.13;;;;;;;;;;10126009;28;20523;-73
2024/03/24 03:25:08;;;;;;;23.17;22.00;;;;;;;;;;10126088;28;20484;-73
2024/03/24 03:30:00;;;;;;;25.50;24.23;;;;;;;;;;10125920;28;20067;-73
2024/03/24 03:34:54;;;;;;;25.45;24.23;;;;;;;;;;10124608;28;20076;-73
2024/03/24 03:39:46;;;;;;;21.15;19.95;;;;;;;;;;10125670;28;20067;-74
2024/03/24 03:44:39;;;;;;;50.03;47.47;;;;;;;;;;10125275;28;20098;-74
2024/03/24 03:49:31;;;;;;;27.75;26.00;;;;;;;;;;10125740;28;20416;-74
2024/03/24 03:54:24;;;;;;;16.40;15.55;;;;;;;;;;10125331;28;20415;-74
2024/03/24 03:59:17;;;;;;;24.40;23.15;;;;;;;;;;10125496;28;20499;-74
2024/03/24 04:04:09;;;;;;;17.75;16.50;;;;;;;;;;10123166;28;20135;-73
2024/03/24 04:09:02;;;;;;;24.25;22.83;;;;;;;;;;10116030;28;20044;-73
2024/03/24 04:13:55;;;;;;;17.15;16.30;;;;;;;;;;10121826;28;20143;-73
2024/03/24 04:18:48;;;;;;;17.00;15.95;;;;;;;;;;10127090;28;20045;-74
2024/03/24 04:23:40;;;;;;;21.67;20.63;;;;;;;;;;10126991;28;20121;-72
2024/03/24 04:28:33;;;;;;;19.40;18.23;;;;;;;;;;10122255;28;20068;-73
2024/03/24 04:33:26;;;;;;;10.77;10.00;;;;;;;;;;10124831;28;20063;-74
2024/03/24 04:38:19;;;;;;;9.23;8.73;;;;;;;;;;10120432;28;20530;-74
2024/03/24 04:43:13;;;;;;;8.73;8.32;;;;;;;;;;10124157;28;20059;-74
2024/03/24 04:48:07;;;;;;;13.82;13.07;;;;;;;;;;10124391;28;20143;-74
2024/03/24 04:53:00;;;;;;;8.05;7.65;;;;;;;;;;10123789;28;20051;-74
2024/03/24 04:57:54;;;;;;;9.77;9.27;;;;;;;;;;10124550;28;20044;-74
2024/03/24 05:02:46;;;;;;;5.65;5.15;;;;;;;;;;10124456;28;20067;-74
2024/03/24 05:07:41;;;;;;;8.60;8.13;;;;;;;;;;10123581;28;20036;-74
2024/03/24 05:12:33;;;;;;;10.40;9.80;;;;;;;;;;10122200;28;20143;-73
2024/03/24 05:17:26;;;;;;;7.35;7.03;;;;;;;;;;10114860;28;20045;-74
2024/03/24 05:22:19;;;;;;;10.27;9.60;;;;;;;;;;10130441;28;20052;-73
2024/03/24 05:27:11;;;;;;;6.63;6.28;;;;;;;;;;10119546;28;20037;-76
2024/03/24 05:32:05;;;;;;;6.75;6.45;;;;;;;;;;10132637;28;20559;-76
2024/03/24 05:36:57;;;;;;;9.27;8.77;;;;;;;;;;10120459;28;20068;-76
2024/03/24 05:41:49;;;;;;;4.00;3.80;;;;;;;;;;10128853;28;20045;-76
2024/03/24 05:46:43;;;;;;;6.30;5.90;;;;;;;;;;10127604;28;20090;-75
2024/03/24 05:51:36;;;;;;;4.30;4.10;;;;;;;;;;10132196;28;20066;-75
2024/03/24 05:56:28;;;;;;;8.15;7.75;;;;;;;;;;10124589;28;20566;-74
2024/03/24 06:01:23;;;;;;;9.82;9.32;;;;;;;;;;10128631;28;20418;-74
2024/03/24 06:06:15;;;;;;;6.78;6.47;;;;;;;;;;10105748;28;20087;-74
2024/03/24 06:11:08;;;;;;;8.20;7.70;;;;;;;;;;10118151;28;20140;-74
2024/03/24 06:16:01;;;;;;;6.05;5.75;;;;;;;;;;10072323;28;20071;-75
2024/03/24 06:20:54;;;;;;;8.57;8.07;;;;;;;;;;10067626;28;20068;-75
2024/03/24 06:25:47;;;;;;;3.08;2.88;;;;;;;;;;10077986;28;20516;-73
2024/03/24 06:30:43;;;;;;;2.20;2.10;;;;;;;;;;10062618;28;20045;-74
2024/03/24 06:35:35;;;;;;;2.65;2.55;;;;;;;;;;10107861;28;20488;-75
2024/03/24 06:40:28;;;;;;;2.65;2.55;;;;;;;;;;10090977;28;20045;-75
2024/03/24 06:45:20;;;;;;;2.80;2.60;;;;;;;;;;10090738;28;20080;-75
2024/03/24 06:50:13;;;;;;;1.70;1.60;;;;;;;;;;10090608;28;20052;-73
2024/03/24 06:55:07;;;;;;;4.32;1.17;;;;;;;;;;10095262;28;20072;-74
2024/03/24 07:00:00;;;;;;;4.10;2.13;;;;;;;;;;10083593;28;20135;-74
2024/03/24 07:04:53;;;;;;;1.85;1.70;;;;;;;;;;10102943;28;20459;-74
2024/03/24 07:09:46;;;;;;;1.40;1.30;;;;;;;;;;10078449;28;20132;-74
2024/03/24 07:14:39;;;;;;;1.63;1.30;;;;;;;;;;10114753;28;20051;-74
2024/03/24 07:19:32;;;;;;;1.10;1.00;;;;;;;;;;10103759;28;20515;-74
2024/03/24 07:24:25;;;;;;;3.63;1.08;;;;;;;;;;10107381;28;20496;-75
2024/03/24 07:29:17;;;;;;;3.70;1.20;;;;;;;;;;10102009;28;20073;-74
2024/03/24 07:34:10;;;;;;;1.85;1.20;;;;;;;;;;10102359;28;20378;-75
2024/03/24 07:39:03;;;;;;;1.83;1.65;;;;;;;;;;10117620;28;20036;-74
2024/03/24 07:43:55;;;;;;;3.90;3.13;;;;;;;;;;10119160;28;20106;-74
2024/03/24 07:48:48;;;;;;;2.08;1.20;;;;;;;;;;10109278;28;20106;-75
2024/03/24 07:53:41;;;;;;;2.78;1.42;;;;;;;;;;10107875;28;20040;-75
2024/03/24 07:58:33;;;;;;;1.77;1.25;;;;;;;;;;10102614;28;20437;-75
2024/03/24 08:03:26;;;;;;;2.65;1.80;;;;;;;;;;10102228;28;20041;-75
2024/03/24 08:08:19;;;;;;;16.50;14.85;;;;;;;;;;10106444;28;20049;-75
2024/03/24 08:13:10;;;;;;;13.13;11.95;;;;;;;;;;10098534;28;20492;-75
2024/03/24 08:18:04;;;;;;;4.25;1.98;;;;;;;;;;10099192;28;20041;-75
2024/03/24 08:22:56;;;;;;;4.22;1.30;;;;;;;;;;10101427;28;20048;-75
2024/03/24 08:27:48;;;;;;;1.75;1.65;;;;;;;;;;10098694;28;20059;-75
2024/03/24 08:32:40;;;;;;;2.15;1.98;;;;;;;;;;10098455;28;20041;-75
2024/03/24 08:37:32;;;;;;;7.65;3.55;;;;;;;;;;10100683;28;20543;-75
2024/03/24 08:42:25;;;;;;;0.90;0.90;;;;;;;;;;10095556;28;20071;-75
2024/03/24 08:47:17;;;;;;;1.70;1.42;;;;;;;;;;10090603;28;20065;-74
2024/03/24 08:52:10;;;;;;;3.63;3.42;;;;;;;;;;10079645;28;20037;-72
2024/03/24 08:57:03;;;;;;;3.55;1.98;;;;;;;;;;10087161;28;20076;-73
2024/03/24 09:01:55;;;;;;;3.20;2.20;;;;;;;;;;10082048;28;20053;-72
2024/03/24 09:06:48;;;;;;;3.75;1.35;;;;;;;;;;10077603;28;20124;-73
2024/03/24 09:11:41;;;;;;;2.85;2.63;;;;;;;;;;10094819;28;20168;-72
2024/03/24 09:16:33;;;;;;;2.83;2.08;;;;;;;;;;10089149;28;20119;-73
2024/03/24 09:21:25;;;;;;;2.28;0.93;;;;;;;;;;10093316;28;20045;-73
2024/03/24 09:26:18;;;;;;;0.93;0.90;;;;;;;;;;10088177;28;20558;-73
2024/03/24 09:31:10;;;;;;;1.65;1.10;;;;;;;;;;10092915;28;20067;-72
2024/03/24 09:36:04;;;;;;;2.45;2.30;;;;;;;;;;10092467;28;20459;-73
2024/03/24 09:40:57;;;;;;;3.05;1.95;;;;;;;;;;10082091;28;20059;-74
2024/03/24 09:45:49;;;;;;;2.45;2.17;;;;;;;;;;10080415;28;20055;-74
2024/03/24 09:50:43;;;;;;;3.13;1.58;;;;;;;;;;10086140;28;20053;-74
2024/03/24 09:55:37;;;;;;;1.67;1.15;;;;;;;;;;10084969;28;20053;-74
2024/03/24 10:00:29;;;;;;;0.95;0.95;;;;;;;;;;10090002;28;20120;-74
2024/03/24 10:05:22;;;;;;;2.22;2.03;;;;;;;;;;10089492;28;20057;-74
2024/03/24 10:10:15;;;;;;;3.72;1.05;;;;;;;;;;10091027;28;20049;-75
2024/03/24 10:15:27;;;;;;;1.40;1.05;;;;;;;;;;10087264;28;20053;-73
2024/03/24 10:20:19;;;;;;;1.05;0.77;;;;;;;;;;10083159;28;20512;-74
2024/03/24 10:25:12;;;;;;;3.10;1.52;;;;;;;;;;10069603;28;20049;-74
2024/03/24 10:30:06;;;;;;;3.65;1.02;;;;;;;;;;10086653;28;20049;-74
2024/03/24 10:35:00;;;;;;;4.00;2.22;;;;;;;;;;10090018;28;20041;-75
2024/03/24 10:39:52;;;;;;;2.08;1.15;;;;;;;;;;10065035;28;20052;-74
2024/03/24 10:44:45;;;;;;;2.20;1.30;;;;;;;;;;10083343;28;20045;-74
2024/03/24 10:49:40;;;;;;;3.00;0.90;;;;;;;;;;10090102;28;20045;-75
2024/03/24 10:54:33;;;;;;;2.60;0.63;;;;;;;;;;10082646;28;20102;-74
2024/03/24 10:59:27;;;;;;;1.83;1.10;;;;;;;;;;10087592;28;20417;-74
2024/03/24 11:04:20;;;;;;;1.50;1.40;;;;;;;;;;10086356;28;20159;-74
2024/03/24 11:09:12;;;;;;;3.10;3.00;;;;;;;;;;10085633;28;20051;-74
2024/03/24 11:14:05;;;;;;;4.88;2.60;;;;;;;;;;10094857;28;20048;-74
2024/03/24 11:19:15;;;;;;;2.33;0.40;;;;;;;;;;10099105;28;20501;-73
2024/03/24 11:24:23;;;;;;;2.05;0.85;;;;;;;;;;10095221;28;20501;-75
2024/03/24 11:29:58;;;;;;;1.42;0.80;;;;;;;;;;10101956;28;20064;-74
2024/03/24 11:34:52;;;;;;;4.85;2.75;;;;;;;;;;10101535;28;20497;-74
2024/03/24 11:39:46;;;;;;;1.77;1.05;;;;;;;;;;10101658;28;20061;-74
2024/03/24 11:44:38;;;;;;;0.75;0.70;;;;;;;;;;10101228;28;20044;-74
2024/03/24 11:49:37;;;;;;;1.83;1.73;;;;;;;;;;10084956;28;20148;-74
2024/03/24 11:54:29;;;;;;;4.30;2.15;;;;;;;;;;10101304;28;20045;-74
2024/03/24 11:59:22;;;;;;;5.20;3.13;;;;;;;;;;10084281;28;20055;-74
2024/03/24 12:04:14;;;;;;;3.80;1.92;;;;;;;;;;10100718;28;20083;-73
2024/03/24 12:09:07;;;;;;;2.75;2.40;;;;;;;;;;10100336;28;20045;-74
2024/03/24 12:14:00;;;;;;;62.97;17.95;;;;;;;;;;10100955;28;20136;-73
2024/03/24 12:18:52;;;;;;;1.35;1.25;;;;;;;;;;10097214;28;20041;-73
2024/03/24 12:23:45;;;;;;;3.17;1.80;;;;;;;;;;10101167;28;20145;-75
2024/03/24 12:28:38;;;;;;;5.40;1.83;;;;;;;;;;10099002;28;20095;-75
2024/03/24 12:33:31;;;;;;;4.70;1.92;;;;;;;;;;10122200;28;20066;-74
2024/03/24 12:38:23;;;;;;;3.10;1.90;;;;;;;;;;10104803;28;20048;-72
2024/03/24 12:43:16;;;;;;;4.53;1.52;;;;;;;;;;10097991;28;20056;-72
2024/03/24 12:48:10;;;;;;;2.22;1.60;;;;;;;;;;10108552;28;20051;-72
2024/03/24 12:53:20;;;;;;;4.55;1.40;;;;;;;;;;10105969;28;20135;-74
2024/03/24 12:58:13;;;;;;;2.47;1.80;;;;;;;;;;10089845;28;20045;-73
2024/03/24 13:03:09;;;;;;;4.88;2.10;;;;;;;;;;10108423;28;20045;-71
2024/03/24 13:08:03;;;;;;;5.80;1.67;;;;;;;;;;10106938;28;20044;-73
2024/03/24 13:12:58;;;;;;;34.30;2.17;;;;;;;;;;10091454;28;20548;-74
2024/03/24 13:17:53;;;;;;;2.53;1.83;;;;;;;;;;10107669;28;20139;-74
2024/03/24 13:22:45;;;;;;;3.17;2.38;;;;;;;;;;10097595;28;20071;-73
2024/03/24 13:28:11;;;;;;;4.25;3.00;;;;;;;;;;10101109;28;20048;-73
2024/03/24 13:33:04;;;;;;;7.22;2.28;;;;;;;;;;10111203;28;20049;-73
2024/03/24 13:38:04;;;;;;;3.22;2.13;;;;;;;;;;10105799;28;20496;-73
2024/03/24 13:43:20;;;;;;;3.50;1.80;;;;;;;;;;10102815;28;20036;-74
2024/03/24 13:48:17;;;;;;;2.85;2.25;;;;;;;;;;10085388;28;20084;-73
2024/03/24 13:53:10;;;;;;;1.80;1.30;;;;;;;;;;10106594;28;20076;-73
2024/03/24 13:58:04;;;;;;;1.92;1.65;;;;;;;;;;10106289;28;20186;-69
2024/03/24 14:02:58;;;;;;;9.32;1.88;;;;;;;;;;10109085;28;20084;-73
2024/03/24 14:07:51;;;;;;;1.77;1.30;;;;;;;;;;10085542;28;20037;-73
2024/03/24 14:13:08;;;;;;;2.35;1.50;;;;;;;;;;10110962;28;20048;-74
2024/03/24 14:18:05;;;;;;;2.67;1.50;;;;;;;;;;10137950;28;20505;-73
2024/03/24 14:23:29;;;;;;;2.05;1.50;;;;;;;;;;10146037;28;20072;-73
2024/03/24 14:28:21;;;;;;;1.45;1.08;;;;;;;;;;10125774;28;20051;-73
2024/03/24 14:33:13;;;;;;;2.20;1.50;;;;;;;;;;10117771;28;20055;-73
2024/03/24 14:38:29;;;;;;;4.97;1.63;;;;;;;;;;10114984;28;20483;-73
2024/03/24 14:43:49;;;;;;;3.78;1.33;;;;;;;;;;10105213;28;20101;-74
2024/03/24 14:48:41;;;;;;;1.90;1.15;;;;;;;;;;10128334;28;20048;-74
2024/03/24 14:53:33;;;;;;;4.85;1.25;;;;;;;;;;10119943;28;20064;-74
2024/03/24 14:58:26;;;;;;;1.35;1.20;;;;;;;;;;10122729;28;20044;-73
2024/03/24 15:03:19;;;;;;;2.80;1.30;;;;;;;;;;10122410;28;20497;-73
2024/03/24 15:08:11;;;;;;;1.85;1.30;;;;;;;;;;10119646;28;20046;-73
2024/03/24 15:13:04;;;;;;;3.38;1.20;;;;;;;;;;10110457;28;20385;-73
2024/03/24 15:17:57;;;;;;;3.22;1.38;;;;;;;;;;10123758;28;20044;-73
2024/03/24 15:22:50;;;;;;;1.38;0.98;;;;;;;;;;10105707;28;20068;-75
2024/03/24 15:27:43;;;;;;;2.38;1.48;;;;;;;;;;10124234;28;20063;-74
2024/03/24 15:32:36;;;;;;;1.88;1.52;;;;;;;;;;10135239;28;20575;-73
2024/03/24 15:37:28;;;;;;;1.10;0.88;;;;;;;;;;10118392;28;20510;-73
2024/03/24 15:42:21;;;;;;;2.35;1.50;;;;;;;;;;10124989;28;20056;-74
2024/03/24 15:47:13;;;;;;;3.75;1.98;;;;;;;;;;10124439;28;20036;-72
2024/03/24 15:52:06;;;;;;;2.38;1.10;;;;;;;;;;10101568;28;20199;-73
2024/03/24 15:57:04;;;;;;;1.52;1.17;;;;;;;;;;10125384;28;20114;-74
2024/03/24 16:02:31;;;;;;;1.83;0.97;;;;;;;;;;10118528;28;20127;-73
2024/03/24 16:07:35;;;;;;;5.00;1.70;;;;;;;;;;10133623;28;20123;-74
2024/03/24 16:12:53;;;;;;;1.48;1.17;;;;;;;;;;10118649;28;20484;-76
2024/03/24 16:17:48;;;;;;;2.03;1.25;;;;;;;;;;10111028;28;20071;-74
2024/03/24 16:22:42;;;;;;;4.18;2.03;;;;;;;;;;10126826;28;20512;-76
2024/03/24 16:27:34;;;;;;;2.78;1.70;;;;;;;;;;10112001;28;20127;-77
2024/03/24 16:32:26;;;;;;;3.15;1.60;;;;;;;;;;10136403;28;20052;-77
2024/03/24 16:37:19;;;;;;;1.30;1.20;;;;;;;;;;10122846;28;20056;-76
2024/03/24 16:42:11;;;;;;;3.00;1.67;;;;;;;;;;10126243;28;20055;-75
2024/03/24 16:47:05;;;;;;;1.92;1.42;;;;;;;;;;10120073;28;20040;-76
2024/03/24 16:51:57;;;;;;;3.65;2.53;;;;;;;;;;10126295;28;20128;-77
2024/03/24 16:56:49;;;;;;;1.38;1.20;;;;;;;;;;10114728;28;20111;-77
2024/03/24 17:01:42;;;;;;;2.17;1.17;;;;;;;;;;10126161;28;20048;-77
2024/03/24 17:06:35;;;;;;;5.93;1.33;;;;;;;;;;10117693;28;20037;-76
2024/03/24 17:11:28;;;;;;;4.22;2.60;;;;;;;;;;10125428;28;20067;-78
2024/03/24 17:16:23;;;;;;;6.30;5.70;;;;;;;;;;10108437;28;20115;-79
2024/03/24 17:21:16;;;;;;;4.68;1.88;;;;;;;;;;10132349;28;20135;-78
2024/03/24 17:26:15;;;;;;;6.80;2.00;;;;;;;;;;10128291;28;20037;-80
2024/03/24 17:31:13;;;;;;;2.53;1.60;;;;;;;;;;10125006;28;20057;-78
2024/03/24 17:36:07;;;;;;;3.55;1.65;;;;;;;;;;10118695;28;20134;-77
2024/03/24 17:40:59;;;;;;;4.60;1.90;;;;;;;;;;10126021;28;20166;-76
2024/03/24 17:45:52;;;;;;;3.67;1.90;;;;;;;;;;10127559;28;20530;-76
2024/03/24 17:50:45;;;;;;;11.65;5.32;;;;;;;;;;10120712;28;20048;-76
2024/03/24 17:55:37;;;;;;;6.05;4.85;;;;;;;;;;10107830;28;20044;-77
2024/03/24 18:00:32;;;;;;;5.22;3.22;;;;;;;;;;10127924;28;20186;-80
2024/03/24 18:05:24;;;;;;;14.98;10.52;;;;;;;;;;10122512;28;20040;-76
2024/03/24 18:10:17;;;;;;;14.00;7.32;;;;;;;;;;10134405;28;20091;-75
2024/03/24 18:15:09;;;;;;;8.55;3.20;;;;;;;;;;10127474;28;20052;-77
2024/03/24 18:20:02;;;;;;;3.97;1.85;;;;;;;;;;10127313;28;20098;-77
2024/03/24 18:24:54;;;;;;;7.63;5.35;;;;;;;;;;10123309;28;20041;-79
2024/03/24 18:29:46;;;;;;;4.20;1.88;;;;;;;;;;10127017;28;20135;-77
2024/03/24 18:34:39;;;;;;;8.80;7.15;;;;;;;;;;10116531;28;20047;-83
2024/03/24 18:39:32;;;;;;;6.00;2.90;;;;;;;;;;10126409;28;20044;-78
2024/03/24 18:44:25;;;;;;;9.68;2.35;;;;;;;;;;10122279;28;20493;-78
2024/03/24 18:49:17;;;;;;;4.85;2.58;;;;;;;;;;10114813;28;20056;-77
2024/03/24 18:54:10;;;;;;;5.28;2.63;;;;;;;;;;10126308;28;20420;-77
2024/03/24 18:59:02;;;;;;;7.25;3.30;;;;;;;;;;10117223;28;20157;-76
2024/03/24 19:03:54;;;;;;;7.40;3.92;;;;;;;;;;10117773;28;20044;-77
2024/03/24 19:08:47;;;;;;;21.48;17.05;;;;;;;;;;10108116;28;20049;-74
2024/03/24 19:13:39;;;;;;;8.43;4.65;;;;;;;;;;10095179;28;20069;-76
2024/03/24 19:18:32;;;;;;;5.85;2.95;;;;;;;;;;10098898;28;20045;-77
2024/03/24 19:23:25;;;;;;;3.20;2.38;;;;;;;;;;10099482;28;20426;-77
2024/03/24 19:28:17;;;;;;;3.05;1.70;;;;;;;;;;10092488;28;20041;-75
2024/03/24 19:33:10;;;;;;;4.85;2.38;;;;;;;;;;10124604;28;20072;-76
2024/03/24 19:38:02;;;;;;;5.97;3.25;;;;;;;;;;10106139;28;20044;-77
2024/03/24 19:42:55;;;;;;;4.88;2.78;;;;;;;;;;10098396;28;20037;-78
2024/03/24 19:47:49;;;;;;;2.40;1.70;;;;;;;;;;10092864;28;20055;-76
2024/03/24 19:52:41;;;;;;;9.02;2.60;;;;;;;;;;10094764;28;20045;-78
2024/03/24 19:57:33;;;;;;;7.05;1.92;;;;;;;;;;10092084;28;20045;-76
2024/03/24 20:02:25;;;;;;;3.13;1.73;;;;;;;;;;10099563;28;20088;-77
2024/03/24 20:07:17;;;;;;;6.25;1.80;;;;;;;;;;10096704;28;20071;-76
2024/03/24 20:12:14;;;;;;;2.65;1.50;;;;;;;;;;10118039;28;20707;-93
2024/03/24 20:17:31;;;;;;;30.85;27.63;;;;;;;;;;10120456;28;20049;-92
2024/03/24 20:23:12;;;;;;;9.15;2.65;;;;;;;;;;10118176;28;20049;-95
2024/03/24 20:29:18;;;;;;;4.85;2.25;;;;;;;;;;10114872;28;20135;-95
2024/03/24 20:35:16;;;;;;;2.83;1.92;;;;;;;;;;10120045;28;20138;-95
2024/03/24 20:41:44;;;;;;;6.65;2.85;;;;;;;;;;10016717;28;20518;-94
2024/03/24 20:48:00;;;;;;;5.30;2.22;;;;;;;;;;10017858;28;20057;-93
2024/03/24 20:54:31;;;;;;;2.95;2.20;;;;;;;;;;10013411;28;20144;-93
2024/03/24 21:00:54;;;;;;;3.60;1.95;;;;;;;;;;9939091;28;20058;-95
2024/03/24 21:06:32;;;;;;;5.75;2.92;;;;;;;;;;9925380;28;20053;-95
2024/03/24 21:12:48;;;;;;;6.22;2.70;;;;;;;;;;9990201;28;20417;-94
2024/03/24 21:19:10;;;;;;;11.38;2.88;;;;;;;;;;9936094;28;20147;-94
2024/03/24 21:24:30;;;;;;;9.07;3.42;;;;;;;;;;9931578;28;20208;-95
2024/03/24 21:30:14;;;;;;;4.00;2.55;;;;;;;;;;9915259;28;20065;-94
2024/03/24 21:35:20;;;;;;;7.70;3.40;;;;;;;;;;11155066;22;20060;-93
2024/03/24 21:46:16;;;;;;;4.65;2.70;;;;;;;;;;10034082;28;20069;-93
2024/03/24 21:58:29;;;;;;;5.17;2.90;;;;;;;;;;10026708;28;20065;-94
2024/03/24 22:03:41;;;;;;;2.13;1.98;;;;;;;;;;10045567;28;20546;-95
2024/03/24 22:09:14;;;;;;;8.05;5.43;;;;;;;;;;10028424;28;20050;-94
2024/03/24 22:14:47;;;;;;;9.70;5.72;;;;;;;;;;10036639;28;20042;-95
2024/03/24 22:20:11;;;;;;;7.68;5.88;;;;;;;;;;10043698;28;20528;-92
2024/03/24 22:25:45;;;;;;;6.80;5.72;;;;;;;;;;10035775;28;20395;-93
2024/03/24 22:31:19;;;;;;;10.90;6.32;;;;;;;;;;10048129;28;20037;-96
2024/03/24 22:49:53;;;;;;;6.25;3.22;;;;;;;;;;9999481;28;20510;-95
2024/03/24 23:35:11;;;;;;;2.97;2.25;;;;;;;;;;9950335;28;20090;-95
2024/03/24 23:41:18;;;;;;;2.55;2.35;;;;;;;;;;9924728;28;20082;-94
2024/03/24 23:46:40;;;;;;;2.63;2.40;;;;;;;;;;9919383;28;20078;-94
2024/03/24 23:52:30;;;;;;;3.05;2.47;;;;;;;;;;9852893;29;20135;-95
